»·PEaware :: NKS788 KSAN-KLAS

NKS788 :: KSAN-KLAS

FLIGHT INFORMATION

Flight Status: Arrived
Operator:
Spirit Airlines
More flights by this operator :: More flights under this callsign
Pilot: Esteban Daniel Fernandez (13773)
Aircraft: AIRBUS A320
(A320)
More flights by this aircraft type
Origin: KSAN San Diego Intl-Lindbergh
United States
Destination: KLAS McCarran Intl
United States
More flights between these airports :: More routes between these airports
Route: +PEBLE6 SXC LAX DAG KEPEC3
File this flight plan on PilotEdge
Remarks:
Altitude:
(Current/Filed)
290ft
Speed:
(Current/Filed)
440kts
Departed: 08-Jan-17 11:03 AM
Arrived: 08-Jan-17 11:58 AM
Distance/Time
Traveled:
225nm/0:55
Distance/Time
To Go:
Arrived

Flight Plot

Page will automatically refresh every two minutes.

Filed plans courtesy of Ian Elchitz and SimRoutes.com


Map Options




Map Legend


Flown Route
Filed Route
Departure Airport
Arrival Airport
Navaid (VOR, NDB)
Fix

Horizontal Profiles

Position Reports

Time Latitude Longitude Heading Altitude Ground
Speed
08-Jan-17 10:17 32.732263 -117.202387 166 29ft 0kts
08-Jan-17 10:18 32.732263 -117.202387 166 29ft 0kts
08-Jan-17 10:19 32.732263 -117.202387 166 29ft 0kts
08-Jan-17 10:20 32.732263 -117.202387 166 29ft 0kts
08-Jan-17 10:21 32.732263 -117.202387 166 29ft 0kts
08-Jan-17 10:22 32.732263 -117.202387 166 29ft 0kts
08-Jan-17 10:23 32.732263 -117.202387 166 29ft 0kts
08-Jan-17 10:24 32.732263 -117.202387 166 29ft 0kts
08-Jan-17 10:25 32.732263 -117.202387 166 29ft 0kts
08-Jan-17 10:26 32.732263 -117.202387 166 29ft 0kts
08-Jan-17 10:27 32.732263 -117.202387 166 29ft 0kts
08-Jan-17 10:28 32.732263 -117.202387 166 29ft 0kts
08-Jan-17 10:29 32.732263 -117.202387 166 29ft 0kts
08-Jan-17 10:30 32.732263 -117.202387 166 29ft 0kts
08-Jan-17 10:31 32.732263 -117.202387 166 29ft 0kts
08-Jan-17 10:32 32.732263 -117.202387 166 29ft 0kts
08-Jan-17 10:33 32.732263 -117.202387 166 29ft 0kts
08-Jan-17 10:34 32.732263 -117.202387 166 29ft 0kts
08-Jan-17 10:35 32.732263 -117.202387 166 29ft 0kts
08-Jan-17 10:36 32.732263 -117.202387 166 29ft 0kts
08-Jan-17 10:37 32.732263 -117.202387 166 29ft 0kts
08-Jan-17 10:38 32.732263 -117.202387 166 29ft 0kts
08-Jan-17 10:39 32.732263 -117.202387 166 29ft 0kts
08-Jan-17 10:40 32.732263 -117.202387 166 29ft 0kts
08-Jan-17 10:41 32.732263 -117.202387 166 29ft 0kts
08-Jan-17 10:42 32.732263 -117.202387 166 29ft 0kts
08-Jan-17 10:43 32.732263 -117.202387 166 29ft 0kts
08-Jan-17 10:44 32.732263 -117.202387 166 29ft 0kts
08-Jan-17 10:45 32.732263 -117.202387 166 29ft 0kts
08-Jan-17 10:46 32.732263 -117.202387 166 29ft 0kts
08-Jan-17 10:47 32.732263 -117.202387 166 29ft 0kts
08-Jan-17 10:48 32.732263 -117.202387 166 29ft 0kts
08-Jan-17 10:49 32.732263 -117.202387 166 29ft 0kts
08-Jan-17 10:50 32.732708 -117.202509 166 29ft 2kts
08-Jan-17 10:51 32.732877 -117.202556 166 29ft 0kts
08-Jan-17 10:52 32.732877 -117.202556 166 29ft 0kts
08-Jan-17 10:53 32.732860 -117.202364 30 29ft 2kts
08-Jan-17 10:54 32.733057 -117.202475 324 29ft 0kts
08-Jan-17 10:55 32.733058 -117.202476 324 29ft 0kts
08-Jan-17 10:56 32.733064 -117.202480 324 29ft 0kts
08-Jan-17 10:57 32.735192 -117.202329 18 29ft 15kts
08-Jan-17 10:58 32.734276 -117.196973 106 29ft 22kts
08-Jan-17 10:59 32.732282 -117.188825 103 29ft 25kts
08-Jan-17 11:00 32.730393 -117.180980 104 29ft 23kts
08-Jan-17 11:01 32.729495 -117.176954 79 29ft 0kts
08-Jan-17 11:02 32.729501 -117.176911 79 29ft 1kts
08-Jan-17 11:03 32.732122 -117.183874 285 29ft 122kts
08-Jan-17 11:04 32.753368 -117.230893 303 2429ft 198kts
08-Jan-17 11:05 32.788315 -117.289744 303 5083ft 268kts
08-Jan-17 11:06 32.832654 -117.364089 300 9343ft 284kts
08-Jan-17 11:07 32.884797 -117.447220 309 12470ft 340kts
08-Jan-17 11:08 32.957073 -117.525557 311 14947ft 358kts
08-Jan-17 11:09 33.022486 -117.595851 310 14989ft 354kts
08-Jan-17 11:10 33.090259 -117.694699 299 14981ft 345kts
08-Jan-17 11:11 33.149025 -117.785305 300 14979ft 346kts
08-Jan-17 11:12 33.197752 -117.883796 286 17518ft 344kts
08-Jan-17 11:13 33.233618 -117.991190 285 20667ft 354kts
08-Jan-17 11:14 33.270483 -118.102044 286 23051ft 369kts
08-Jan-17 11:15 33.308450 -118.216549 285 23274ft 367kts
08-Jan-17 11:16 33.345859 -118.329872 285 23293ft 366kts
08-Jan-17 11:17 33.411221 -118.418858 339 23307ft 401kts
08-Jan-17 11:18 33.512665 -118.422639 357 23922ft 435kts
08-Jan-17 11:19 33.612072 -118.333329 45 25920ft 482kts
08-Jan-17 11:20 33.704406 -118.214725 42 27614ft 491kts
08-Jan-17 11:21 33.799047 -118.094566 42 29119ft 498kts
08-Jan-17 11:22 33.894992 -117.972251 42 29268ft 499kts
08-Jan-17 11:23 33.989783 -117.850905 42 29289ft 498kts
08-Jan-17 11:24 34.084443 -117.729359 42 29302ft 497kts
08-Jan-17 11:25 34.179160 -117.607194 42 29297ft 497kts
08-Jan-17 11:26 34.273008 -117.485730 42 29306ft 497kts
08-Jan-17 11:27 34.367338 -117.363222 42 29321ft 496kts
08-Jan-17 11:28 34.453319 -117.251161 43 29339ft 496kts
08-Jan-17 11:29 34.546962 -117.128708 43 29363ft 496kts
08-Jan-17 11:30 34.640766 -117.005601 43 29379ft 495kts
08-Jan-17 11:31 34.733769 -116.883112 43 29380ft 495kts
08-Jan-17 11:32 34.827039 -116.759769 43 29379ft 493kts
08-Jan-17 11:33 34.919787 -116.636747 43 29380ft 493kts
08-Jan-17 11:34 35.003185 -116.528054 41 27813ft 485kts
08-Jan-17 11:35 35.079956 -116.432169 40 25132ft 445kts
08-Jan-17 11:36 35.168789 -116.321241 40 24394ft 460kts
08-Jan-17 11:37 35.258137 -116.209326 40 24392ft 460kts
08-Jan-17 11:38 35.347458 -116.097227 40 23801ft 463kts
08-Jan-17 11:39 35.437675 -115.983853 41 19485ft 453kts
08-Jan-17 11:40 35.522881 -115.876239 42 15067ft 424kts
08-Jan-17 11:41 35.600564 -115.777242 42 13286ft 399kts
08-Jan-17 11:42 35.671513 -115.686263 42 13003ft 349kts
08-Jan-17 11:43 35.738635 -115.600211 38 13004ft 348kts
08-Jan-17 11:44 35.826521 -115.571256 353 13007ft 323kts
08-Jan-17 11:45 35.916176 -115.566538 353 13008ft 321kts
08-Jan-17 11:46 35.989214 -115.511641 66 12373ft 347kts
08-Jan-17 11:47 36.023011 -115.401295 73 11234ft 323kts
08-Jan-17 11:48 36.026388 -115.308265 98 10397ft 300kts
08-Jan-17 11:49 36.018956 -115.208690 98 9338ft 280kts
08-Jan-17 11:50 36.012672 -115.116191 97 8287ft 259kts
08-Jan-17 11:51 36.007350 -115.031829 96 6651ft 247kts
08-Jan-17 11:52 36.003085 -114.945245 85 4724ft 246kts
08-Jan-17 11:53 36.046648 -114.910565 358 4324ft 191kts
08-Jan-17 11:54 36.073435 -114.954508 270 3815ft 193kts
08-Jan-17 11:55 36.073718 -115.019467 267 3808ft 187kts
08-Jan-17 11:56 36.073708 -115.079767 267 2943ft 152kts
08-Jan-17 11:57 36.073605 -115.120836 270 2333ft 141kts
08-Jan-17 11:58 36.074436 -115.145324 300 2195ft 0kts
08-Jan-17 11:59 36.074730 -115.145943 299 2195ft 11kts
08-Jan-17 12:00 36.077748 -115.147530 292 2195ft 14kts
08-Jan-17 12:01 36.080232 -115.148799 335 2195ft 10kts
08-Jan-17 12:02 36.080974 -115.147752 47 2195ft 0kts
08-Jan-17 12:03 36.080974 -115.147752 47 2195ft 0kts
08-Jan-17 12:04 36.080974 -115.147752 47 2195ft 0kts

Navigation Log

Ident Type Via Name
1. KSAN Airport Direct San Diego Intl - Lindbergh Field
2. MELDY Fix PEBLE4
3. PEBLE Fix PEBLE4
4. SXC Navaid PEBLE4 Santa Catalina (111.40)
5. LAX Navaid Direct Los Angeles (113.60)
6. DAG Navaid Direct Daggett (113.20)
7. MISEN Fix KEPEC3
8. CLARR Fix KEPEC3
9. SKEBR Fix KEPEC3
10. KEPEC Fix KEPEC3
11. IPUMY Fix KEPEC3
12. NIPZO Fix KEPEC3
13. SUNST Fix KEPEC3
14. KIMME Fix KEPEC3
15. CHIPZ Fix KEPEC3
16. POKRR Fix KEPEC3
17. PRINO Fix KEPEC3
18. KLAS Airport KEPEC3 Las Vegas / Mccarran Intl